Time;durP1;ratioP1;P1;durP2;ratioP2;P2;SDS_P1;SDS_P2;PMS_P1;PMS_P2;Temp;Humidity;BMP_temperature;BMP_pressure;BME280_temperature;BME280_humidity;BME280_pressure;Samples;Min_cycle;Max_cycle;Signal;HPM_P1;HPM_P2
2021/06/30 00:00:10;;;;;;;0.70;0.70;;;;;;;13.94;78.89;95336.25;4974662;28;20180;-77
2021/06/30 00:02:36;;;;;;;2.37;0.80;;;;;;;13.91;79.03;95328.78;4974727;28;20192;-77
2021/06/30 00:05:01;;;;;;;1.87;0.80;;;;;;;13.88;79.06;95325.53;4959165;28;20579;-77
2021/06/30 00:07:26;;;;;;;0.90;0.90;;;;;;;13.87;79.21;95331.75;4982460;28;20247;-77
2021/06/30 00:09:52;;;;;;;0.80;0.70;;;;;;;13.85;79.45;95343.34;4957141;28;20185;-77
2021/06/30 00:12:17;;;;;;;2.47;0.80;;;;;;;13.75;79.90;95327.91;4956909;28;20184;-77
2021/06/30 00:14:42;;;;;;;1.10;1.00;;;;;;;13.81;79.79;95319.38;4981992;28;20180;-76
2021/06/30 00:17:08;;;;;;;0.97;0.63;;;;;;;13.76;79.73;95319.06;4949145;28;20197;-77
2021/06/30 00:19:34;;;;;;;1.23;0.73;;;;;;;13.78;79.37;95314.53;4956899;28;20200;-76
2021/06/30 00:22:00;;;;;;;1.70;0.80;;;;;;;13.73;79.21;95311.59;4956895;28;20176;-76
2021/06/30 00:24:25;;;;;;;2.80;0.90;;;;;;;13.79;79.47;95305.69;4957154;28;20203;-77
2021/06/30 00:26:51;;;;;;;2.50;0.70;;;;;;;13.78;79.65;95316.28;4956553;28;20204;-77
2021/06/30 00:29:16;;;;;;;0.80;0.80;;;;;;;13.78;79.72;95322.34;4975814;28;20179;-77
2021/06/30 00:31:41;;;;;;;4.10;0.80;;;;;;;13.67;80.09;95327.94;4976086;28;20218;-77
2021/06/30 00:34:07;;;;;;;0.77;0.77;;;;;;;13.64;80.59;95323.06;4975571;28;20180;-77
2021/06/30 00:36:34;;;;;;;3.40;0.70;;;;;;;13.64;80.83;95317.03;4985838;28;20628;-77
2021/06/30 00:39:00;;;;;;;1.40;0.80;;;;;;;13.59;80.84;95304.50;4964225;28;20197;-77
2021/06/30 00:41:26;;;;;;;0.70;0.70;;;;;;;13.55;81.33;95311.88;4956298;28;20200;-77
2021/06/30 00:43:52;;;;;;;1.23;0.60;;;;;;;13.51;81.52;95328.03;4956075;28;20618;-77
2021/06/30 00:46:43;;;;;;;1.43;0.80;;;;;;;13.49;81.60;95320.38;4960145;28;20250;-78
2021/06/30 00:49:09;;;;;;;0.97;0.60;;;;;;;13.46;81.79;95325.94;4966778;28;20190;-77
2021/06/30 00:51:35;;;;;;;1.10;0.70;;;;;;;13.50;81.70;95335.03;4975780;28;20180;-77
2021/06/30 00:54:01;;;;;;;3.33;0.80;;;;;;;13.57;81.51;95333.38;4975306;28;20186;-77
2021/06/30 00:56:27;;;;;;;0.87;0.63;;;;;;;13.49;81.42;95327.38;4974442;28;20199;-76
2021/06/30 00:58:55;;;;;;;1.90;0.70;;;;;;;13.50;81.51;95332.44;4966451;28;20302;-77
2021/06/30 01:01:20;;;;;;;1.03;0.70;;;;;;;13.50;81.33;95326.41;4968427;28;20820;-77
2021/06/30 01:03:50;;;;;;;0.90;0.60;;;;;;;13.52;80.90;95334.91;4975018;28;20180;-77
2021/06/30 01:06:15;;;;;;;0.60;0.60;;;;;;;13.54;80.94;95332.91;4975114;28;20690;-76
2021/06/30 01:08:41;;;;;;;0.60;0.60;;;;;;;13.47;80.41;95339.78;4957729;28;20179;-77
2021/06/30 01:11:08;;;;;;;2.53;0.50;;;;;;;13.49;80.91;95343.03;4957820;28;20187;-77
2021/06/30 01:13:33;;;;;;;1.70;0.63;;;;;;;13.32;81.58;95342.28;4959110;28;20190;-76
2021/06/30 01:15:58;;;;;;;2.90;0.70;;;;;;;13.35;81.75;95347.19;4992626;28;20199;-77
2021/06/30 01:18:25;;;;;;;1.40;0.50;;;;;;;13.30;81.12;95339.88;4973988;28;20310;-77
2021/06/30 01:20:51;;;;;;;1.53;0.60;;;;;;;13.27;80.77;95355.84;4951197;28;20186;-77
2021/06/30 01:23:17;;;;;;;0.70;0.60;;;;;;;13.35;80.36;95349.00;4974642;28;20251;-75
2021/06/30 01:25:42;;;;;;;0.50;0.40;;;;;;;13.17;80.39;95347.38;4968270;28;20204;-76
2021/06/30 01:28:08;;;;;;;0.53;0.53;;;;;;;13.03;80.85;95348.06;4955646;28;20640;-78
2021/06/30 01:30:33;;;;;;;0.77;0.63;;;;;;;13.07;80.98;95345.94;4964979;28;20238;-77
2021/06/30 01:32:59;;;;;;;0.60;0.53;;;;;;;13.10;81.37;95343.00;4957263;28;20550;-77
2021/06/30 01:35:25;;;;;;;1.10;0.70;;;;;;;12.98;81.90;95340.75;4971692;28;20234;-76
2021/06/30 01:37:51;;;;;;;2.93;0.60;;;;;;;12.98;81.91;95339.94;4955349;28;20284;-77
2021/06/30 01:40:18;;;;;;;0.67;0.50;;;;;;;12.93;82.30;95332.63;4979068;28;20192;-77
2021/06/30 01:42:47;;;;;;;1.73;0.60;;;;;;;12.88;82.27;95334.91;4963434;28;20557;-76
2021/06/30 01:45:13;;;;;;;1.30;0.57;;;;;;;12.89;82.54;95330.50;4955289;28;20181;-77
2021/06/30 01:47:38;;;;;;;0.53;0.50;;;;;;;12.93;82.63;95330.03;4955511;28;20204;-76
2021/06/30 01:50:05;;;;;;;1.83;0.77;;;;;;;12.92;83.10;95324.97;4959660;28;20584;-76
2021/06/30 01:52:30;;;;;;;1.23;0.60;;;;;;;12.93;82.72;95329.22;4953729;28;20180;-76
2021/06/30 01:54:56;;;;;;;0.93;0.53;;;;;;;12.92;83.23;95330.19;4956212;28;20235;-77
2021/06/30 01:57:21;;;;;;;1.10;0.90;;;;;;;12.86;83.37;95331.66;4955685;28;20226;-77
2021/06/30 01:59:46;;;;;;;0.90;0.60;;;;;;;12.90;83.88;95332.16;4955286;28;20304;-77
2021/06/30 02:02:12;;;;;;;3.00;0.50;;;;;;;12.85;84.33;95330.03;4954001;28;20184;-77
2021/06/30 02:04:38;;;;;;;0.63;0.60;;;;;;;12.85;84.44;95329.22;4951257;28;20185;-77
2021/06/30 02:07:03;;;;;;;1.53;0.70;;;;;;;12.71;85.49;95318.50;4966426;28;20199;-76
2021/06/30 02:09:28;;;;;;;1.83;0.70;;;;;;;12.73;85.23;95315.75;4958571;28;20180;-77
2021/06/30 02:11:54;;;;;;;0.60;0.60;;;;;;;12.73;85.54;95316.56;4989908;28;20191;-75
2021/06/30 02:14:19;;;;;;;0.97;0.80;;;;;;;12.65;86.01;95318.38;4946605;28;20181;-77
2021/06/30 02:16:44;;;;;;;1.13;0.90;;;;;;;12.62;86.24;95316.06;4958840;28;20200;-78
2021/06/30 02:19:11;;;;;;;0.60;0.60;;;;;;;12.67;86.24;95311.19;4975193;28;20200;-77
2021/06/30 02:21:37;;;;;;;1.87;0.60;;;;;;;12.66;85.79;95314.78;4975834;28;20177;-77
2021/06/30 02:24:03;;;;;;;3.10;0.87;;;;;;;12.60;86.05;95311.03;4968964;28;20199;-76
2021/06/30 02:26:29;;;;;;;1.90;0.80;;;;;;;12.60;86.04;95298.00;4975468;28;20204;-77
2021/06/30 02:28:56;;;;;;;0.90;0.70;;;;;;;12.53;85.98;95293.63;4976294;28;20195;-77
2021/06/30 02:31:22;;;;;;;0.90;0.47;;;;;;;12.51;85.44;95304.22;4975145;28;20184;-76
2021/06/30 02:33:47;;;;;;;1.83;0.77;;;;;;;12.52;85.89;95300.63;4966616;28;20189;-76
2021/06/30 02:36:12;;;;;;;0.53;0.53;;;;;;;12.52;85.12;95297.22;4950258;28;20555;-76
2021/06/30 02:38:38;;;;;;;1.33;0.70;;;;;;;12.53;85.34;95299.66;4958327;28;20211;-76
2021/06/30 02:41:04;;;;;;;4.20;0.60;;;;;;;12.45;85.27;95310.06;4958717;28;20231;-76
2021/06/30 02:43:29;;;;;;;0.67;0.50;;;;;;;12.48;85.44;95312.38;4963303;28;20211;-76
2021/06/30 02:45:54;;;;;;;0.70;0.60;;;;;;;12.51;85.71;95316.41;4968327;28;20203;-77
2021/06/30 02:48:20;;;;;;;1.07;0.50;;;;;;;12.50;85.64;95328.63;4958391;28;20177;-77
2021/06/30 02:50:46;;;;;;;0.50;0.50;;;;;;;12.45;85.99;95331.72;4958836;28;20183;-76
2021/06/30 02:53:11;;;;;;;0.40;0.40;;;;;;;12.50;85.90;95333.84;4942454;28;20564;-79
2021/06/30 02:55:36;;;;;;;0.60;0.60;;;;;;;12.50;85.89;95333.03;4973884;28;20264;-77
2021/06/30 02:58:02;;;;;;;1.40;0.70;;;;;;;12.50;85.48;95340.84;4959285;28;20208;-77
2021/06/30 03:00:27;;;;;;;1.17;0.40;;;;;;;12.43;85.29;95336.28;4958058;28;20172;-76
2021/06/30 03:02:53;;;;;;;0.33;0.30;;;;;;;12.45;85.11;95336.13;4975340;28;20177;-77
2021/06/30 03:05:18;;;;;;;0.70;0.30;;;;;;;12.43;84.96;95340.69;4960682;28;20235;-77
2021/06/30 03:07:44;;;;;;;0.77;0.30;;;;;;;12.39;84.87;95349.81;4965858;28;20296;-77
2021/06/30 03:10:12;;;;;;;0.40;0.40;;;;;;;12.43;85.42;95335.47;4974102;28;20195;-76
2021/06/30 03:12:37;;;;;;;0.70;0.40;;;;;;;12.40;85.13;95341.03;4957753;28;20172;-77
2021/06/30 03:15:04;;;;;;;1.07;0.40;;;;;;;12.50;85.10;95333.84;4959463;28;20192;-77
2021/06/30 03:17:33;;;;;;;0.30;0.30;;;;;;;12.48;85.04;95333.19;4994438;28;20282;-77
2021/06/30 03:19:58;;;;;;;0.80;0.40;;;;;;;12.49;84.70;95342.63;4961592;28;20640;-76
2021/06/30 03:22:24;;;;;;;0.40;0.40;;;;;;;12.44;85.11;95331.88;4994991;28;20187;-77
2021/06/30 03:24:49;;;;;;;0.50;0.30;;;;;;;12.47;84.96;95339.38;4985173;28;20192;-77
2021/06/30 03:27:15;;;;;;;0.40;0.30;;;;;;;12.40;84.77;95333.22;4986385;28;20211;-77
2021/06/30 03:29:40;;;;;;;0.37;0.20;;;;;;;12.27;84.51;95331.06;4994211;28;20326;-77
2021/06/30 03:32:06;;;;;;;0.30;0.30;;;;;;;12.31;84.53;95329.78;4976389;28;20234;-77
2021/06/30 03:34:31;;;;;;;0.20;0.20;;;;;;;12.33;84.76;95329.63;4975429;28;20231;-77
2021/06/30 03:36:57;;;;;;;0.40;0.40;;;;;;;12.34;85.10;95326.84;4984441;28;20914;-77
2021/06/30 03:39:22;;;;;;;0.30;0.30;;;;;;;12.33;85.26;95324.41;4957513;28;20204;-76
2021/06/30 03:41:47;;;;;;;0.60;0.30;;;;;;;12.26;84.30;95320.84;4974647;28;20211;-76
2021/06/30 03:44:13;;;;;;;0.40;0.40;;;;;;;12.19;84.32;95324.09;4957168;28;20206;-77
2021/06/30 03:46:39;;;;;;;2.43;0.53;;;;;;;12.19;84.34;95318.06;4972189;28;20295;-77
2021/06/30 03:49:04;;;;;;;0.40;0.40;;;;;;;12.11;84.21;95321.50;4957973;28;20177;-75
2021/06/30 03:51:29;;;;;;;0.50;0.50;;;;;;;12.19;83.78;95329.31;4957335;28;20272;-77
2021/06/30 03:53:55;;;;;;;0.30;0.30;;;;;;;12.25;82.92;95327.84;4940967;28;20191;-76
2021/06/30 03:56:24;;;;;;;0.70;0.47;;;;;;;12.21;82.93;95330.94;4979899;28;20211;-77
2021/06/30 03:58:54;;;;;;;0.40;0.40;;;;;;;12.09;83.15;95333.84;4952481;28;20215;-77
2021/06/30 04:01:20;;;;;;;0.37;0.37;;;;;;;12.17;82.65;95336.44;4976438;28;20636;-77
2021/06/30 04:03:49;;;;;;;0.40;0.40;;;;;;;12.13;82.65;95336.94;4976096;28;20183;-77
2021/06/30 04:06:14;;;;;;;0.40;0.37;;;;;;;12.15;83.17;95330.59;4975510;28;20901;-76
2021/06/30 04:08:39;;;;;;;0.93;0.50;;;;;;;12.23;83.10;95339.38;4985489;28;20188;-77
2021/06/30 04:11:05;;;;;;;0.30;0.30;;;;;;;12.23;83.35;95342.81;4941699;28;20235;-77
2021/06/30 04:13:30;;;;;;;0.33;0.33;;;;;;;12.34;83.13;95341.66;4940258;28;20192;-77
2021/06/30 04:15:55;;;;;;;1.53;0.33;;;;;;;12.27;83.84;95344.09;4956472;28;20708;-76
2021/06/30 04:18:21;;;;;;;0.50;0.37;;;;;;;12.26;84.10;95346.88;4986379;28;20231;-76
2021/06/30 04:20:47;;;;;;;1.13;0.40;;;;;;;12.27;83.76;95349.31;4975968;28;20227;-77
2021/06/30 04:23:13;;;;;;;0.30;0.30;;;;;;;12.28;83.78;95347.50;4956797;28;20188;-79
2021/06/30 04:25:38;;;;;;;1.20;0.60;;;;;;;12.28;84.18;95355.31;4957812;28;20215;-78
2021/06/30 04:28:04;;;;;;;0.20;0.20;;;;;;;12.28;83.82;95352.72;4960534;28;20189;-78
2021/06/30 04:30:29;;;;;;;1.60;0.40;;;;;;;12.34;83.83;95355.50;4965404;28;20188;-79
2021/06/30 04:32:54;;;;;;;0.50;0.50;;;;;;;12.35;83.54;95353.69;4973736;28;20263;-78
2021/06/30 04:35:20;;;;;;;0.30;0.30;;;;;;;12.43;83.49;95351.91;4957274;28;20570;-79
2021/06/30 04:37:46;;;;;;;1.23;0.33;;;;;;;12.49;82.84;95358.25;4956860;28;20205;-79
2021/06/30 04:40:11;;;;;;;0.30;0.30;;;;;;;12.63;82.07;95349.81;4983754;28;20557;-79
2021/06/30 04:42:37;;;;;;;1.63;0.40;;;;;;;12.63;82.03;95351.56;4962319;28;20220;-79
2021/06/30 04:45:02;;;;;;;0.40;0.30;;;;;;;12.82;81.77;95337.38;4957345;28;20184;-78
2021/06/30 04:47:28;;;;;;;0.50;0.30;;;;;;;12.86;81.19;95336.88;4957432;28;20206;-78
2021/06/30 04:49:53;;;;;;;0.23;0.20;;;;;;;12.97;80.08;95339.13;4949377;28;20666;-80
2021/06/30 04:52:18;;;;;;;0.37;0.30;;;;;;;13.11;79.25;95335.00;4963502;28;20652;-79
2021/06/30 04:54:44;;;;;;;0.33;0.30;;;;;;;13.35;79.13;95336.75;4956802;28;20203;-80
2021/06/30 04:57:09;;;;;;;0.37;0.37;;;;;;;13.64;77.62;95327.47;4957529;28;20204;-79
2021/06/30 04:59:34;;;;;;;0.20;0.20;;;;;;;13.79;77.63;95329.19;4976747;28;20250;-80
2021/06/30 05:01:59;;;;;;;0.50;0.30;;;;;;;13.98;77.32;95324.50;4984635;28;20226;-80
2021/06/30 05:04:25;;;;;;;0.30;0.30;;;;;;;13.54;78.06;95332.91;4975022;28;20185;-80
2021/06/30 05:06:50;;;;;;;0.20;0.20;;;;;;;13.82;77.95;95333.25;4955114;28;20557;-77
2021/06/30 05:09:15;;;;;;;0.50;0.33;;;;;;;13.48;78.60;95330.97;4971500;28;20211;-77
2021/06/30 05:11:41;;;;;;;0.20;0.20;;;;;;;13.42;77.80;95335.06;4990284;28;20210;-78
2021/06/30 05:14:06;;;;;;;2.00;0.30;;;;;;;13.26;78.38;95330.75;4985227;28;20188;-77
2021/06/30 05:16:32;;;;;;;0.20;0.20;;;;;;;13.31;78.72;95327.63;4975776;28;20292;-77
2021/06/30 05:18:57;;;;;;;0.40;0.40;;;;;;;13.17;79.03;95338.75;4976425;28;20219;-78
2021/06/30 05:21:22;;;;;;;0.20;0.20;;;;;;;13.16;78.52;95343.13;4974571;28;20222;-76
2021/06/30 05:23:49;;;;;;;0.20;0.20;;;;;;;13.23;79.30;95344.13;4966933;28;20658;-78
2021/06/30 05:26:14;;;;;;;1.80;0.33;;;;;;;13.25;79.04;95342.19;4963891;28;20207;-78
2021/06/30 05:28:39;;;;;;;0.43;0.43;;;;;;;13.17;78.88;95341.38;4951850;28;20207;-77
2021/06/30 05:31:05;;;;;;;2.00;0.50;;;;;;;13.32;79.46;95339.69;4959765;28;20183;-77
2021/06/30 05:33:30;;;;;;;0.27;0.27;;;;;;;13.59;77.84;95341.03;4983111;28;20259;-76
2021/06/30 05:35:55;;;;;;;0.43;0.27;;;;;;;13.89;77.38;95339.41;4975259;28;20278;-77
2021/06/30 05:38:22;;;;;;;0.63;0.30;;;;;;;13.89;75.89;95339.41;4940299;28;20703;-77
2021/06/30 05:40:47;;;;;;;0.30;0.30;;;;;;;14.47;74.80;95339.81;4956609;28;20722;-78
2021/06/30 05:43:13;;;;;;;0.37;0.20;;;;;;;16.46;67.59;95348.38;4962484;28;20189;-78
2021/06/30 05:45:38;;;;;;;1.20;0.30;;;;;;;19.74;58.94;95346.00;4982317;28;20704;-79
2021/06/30 05:48:04;;;;;;;0.25;0.20;;;;;;;20.41;51.52;95353.53;4956311;28;20537;-77
2021/06/30 05:50:29;;;;;;;0.73;0.30;;;;;;;21.92;46.47;95355.81;4977970;28;20187;-77
2021/06/30 05:52:54;;;;;;;1.95;0.20;;;;;;;22.84;45.06;95349.25;4946775;28;20188;-78
2021/06/30 05:55:20;;;;;;;1.30;0.20;;;;;;;23.14;43.21;95348.31;4975648;28;20220;-79
2021/06/30 05:57:45;;;;;;;0.43;0.40;;;;;;;23.84;43.44;95356.22;4944702;28;20208;-76
2021/06/30 06:00:14;;;;;;;0.73;0.20;;;;;;;23.51;43.61;95358.69;4949010;28;20231;-78
2021/06/30 06:02:39;;;;;;;0.30;0.30;;;;;;;21.95;45.46;95355.38;4960812;28;20204;-77
2021/06/30 06:05:05;;;;;;;0.43;0.10;;;;;;;20.15;50.80;95359.78;4982228;28;20668;-77
2021/06/30 06:07:30;;;;;;;0.10;0.10;;;;;;;19.48;53.12;95354.75;4974118;28;20215;-78
2021/06/30 06:09:56;;;;;;;0.63;0.20;;;;;;;19.15;53.22;95348.75;4980049;28;20179;-77
2021/06/30 06:12:21;;;;;;;0.55;0.25;;;;;;;18.15;57.25;95352.38;4979810;28;20262;-77
2021/06/30 06:14:46;;;;;;;0.22;0.22;;;;;;;17.24;59.84;95350.78;4961901;28;20254;-76
2021/06/30 06:17:12;;;;;;;0.40;0.17;;;;;;;17.38;61.32;95350.84;4970233;28;20266;-77
2021/06/30 06:19:37;;;;;;;0.30;0.30;;;;;;;16.75;62.61;95350.84;4996584;28;20214;-77
2021/06/30 06:22:05;;;;;;;0.63;0.30;;;;;;;16.22;64.40;95355.59;4979881;28;20271;-78
2021/06/30 06:24:31;;;;;;;0.30;0.30;;;;;;;15.87;64.46;95349.41;4979104;28;20204;-78
2021/06/30 06:26:57;;;;;;;0.30;0.30;;;;;;;15.66;64.71;95352.81;4967878;28;20211;-77
2021/06/30 06:29:23;;;;;;;0.60;0.30;;;;;;;15.70;64.40;95355.84;4978728;28;20179;-78
2021/06/30 06:31:49;;;;;;;0.30;0.30;;;;;;;17.19;60.29;95357.59;4995153;28;20186;-77
2021/06/30 06:34:19;;;;;;;1.10;0.43;;;;;;;17.20;60.52;95364.47;4977195;28;20171;-76
2021/06/30 06:36:49;;;;;;;0.20;0.20;;;;;;;16.65;60.05;95376.56;4972935;28;20283;-75
2021/06/30 06:39:16;;;;;;;0.38;0.30;;;;;;;16.73;61.11;95373.03;4961309;28;20196;-76
2021/06/30 06:41:42;;;;;;;2.78;0.20;;;;;;;16.86;60.65;95365.25;4977632;28;20222;-76
2021/06/30 06:44:07;;;;;;;0.20;0.20;;;;;;;18.11;55.70;95370.38;4977377;28;20179;-76
2021/06/30 06:46:33;;;;;;;0.30;0.30;;;;;;;18.67;53.45;95372.69;4975169;28;20214;-77
2021/06/30 06:48:58;;;;;;;0.43;0.28;;;;;;;20.49;49.86;95361.22;4959233;28;20183;-76
2021/06/30 06:51:25;;;;;;;0.63;0.30;;;;;;;21.42;44.60;95361.25;4995631;28;20660;-76
2021/06/30 06:53:50;;;;;;;0.20;0.20;;;;;;;21.80;44.77;95363.66;4961677;28;20190;-77
2021/06/30 06:56:19;;;;;;;0.30;0.20;;;;;;;23.21;41.05;95364.91;4996628;28;20273;-77
2021/06/30 06:58:45;;;;;;;0.20;0.20;;;;;;;20.98;46.02;95363.06;4994002;28;20289;-76
2021/06/30 07:01:10;;;;;;;0.20;0.20;;;;;;;20.50;47.95;95368.13;4957921;28;20556;-77
2021/06/30 07:03:36;;;;;;;0.10;0.10;;;;;;;20.03;50.59;95367.53;4958351;28;20641;-76
2021/06/30 07:06:01;;;;;;;0.30;0.20;;;;;;;19.62;49.78;95370.56;4974798;28;20867;-76
2021/06/30 07:08:26;;;;;;;0.30;0.30;;;;;;;21.13;47.35;95373.31;4947680;28;20636;-76
2021/06/30 07:10:52;;;;;;;1.25;0.20;;;;;;;21.17;45.99;95375.28;4978423;28;20673;-80
2021/06/30 07:13:17;;;;;;;0.22;0.20;;;;;;;20.99;46.83;95371.81;4968380;28;20198;-77
2021/06/30 07:15:42;;;;;;;7.13;1.42;;;;;;;19.78;49.38;95365.63;4961314;28;20185;-77
2021/06/30 07:18:13;;;;;;;11.15;1.75;;;;;;;19.28;50.26;95364.56;4943002;28;20847;-77
2021/06/30 07:20:38;;;;;;;2.25;0.50;;;;;;;18.43;52.93;95360.91;4969102;28;20180;-76
2021/06/30 07:23:04;;;;;;;5.55;0.73;;;;;;;17.79;54.75;95369.25;4958672;28;20204;-75
2021/06/30 07:25:29;;;;;;;5.40;0.70;;;;;;;17.52;56.12;95370.91;4958005;28;20177;-76
2021/06/30 07:27:54;;;;;;;7.32;0.80;;;;;;;17.24;57.13;95366.53;4974683;28;20204;-75
2021/06/30 07:30:20;;;;;;;0.55;0.30;;;;;;;16.97;58.23;95376.03;4981669;28;20191;-75
2021/06/30 07:32:45;;;;;;;0.40;0.30;;;;;;;17.37;57.35;95378.09;4960789;28;20184;-74
2021/06/30 07:35:10;;;;;;;2.55;0.80;;;;;;;17.55;57.37;95376.56;4957103;28;20265;-75
2021/06/30 07:37:36;;;;;;;0.60;0.30;;;;;;;17.50;56.85;95372.94;4974569;28;20742;-75
2021/06/30 07:40:03;;;;;;;1.75;0.35;;;;;;;18.11;56.16;95367.75;4960870;28;20591;-74
2021/06/30 07:42:29;;;;;;;0.73;0.22;;;;;;;17.27;57.02;95374.00;4965174;28;20215;-75
2021/06/30 07:44:54;;;;;;;0.82;0.52;;;;;;;17.45;57.78;95373.50;4940734;28;20212;-75
2021/06/30 07:47:19;;;;;;;0.30;0.30;;;;;;;17.39;56.91;95370.81;4974578;28;20192;-74
2021/06/30 07:49:45;;;;;;;1.25;0.45;;;;;;;17.36;57.89;95374.66;4957201;28;20177;-76
2021/06/30 07:52:10;;;;;;;0.68;0.30;;;;;;;17.53;57.39;95381.22;4966821;28;20180;-76
2021/06/30 07:54:35;;;;;;;0.30;0.30;;;;;;;17.44;57.12;95381.56;4961551;28;20180;-76
2021/06/30 07:57:01;;;;;;;1.48;0.30;;;;;;;17.30;57.54;95385.91;4957288;28;20193;-76
2021/06/30 07:59:26;;;;;;;0.28;0.28;;;;;;;17.94;54.28;95387.50;4941150;28;20201;-76
2021/06/30 08:01:51;;;;;;;0.65;0.35;;;;;;;18.53;53.55;95371.03;4959601;28;20185;-75
2021/06/30 08:04:17;;;;;;;2.33;0.43;;;;;;;18.01;53.73;95375.16;4981339;28;20188;-76
2021/06/30 08:06:42;;;;;;;2.03;0.40;;;;;;;18.37;54.23;95387.97;4956606;28;20212;-75
2021/06/30 08:09:07;;;;;;;1.10;0.38;;;;;;;17.98;54.33;95380.81;4974403;28;20173;-75
2021/06/30 08:11:33;;;;;;;0.20;0.20;;;;;;;17.93;55.17;95378.78;4976360;28;20194;-76
2021/06/30 08:13:58;;;;;;;0.45;0.30;;;;;;;17.87;55.75;95391.91;4951016;28;20188;-76
2021/06/30 08:16:23;;;;;;;2.05;0.57;;;;;;;17.37;56.30;95385.97;4993493;28;20227;-76
2021/06/30 08:18:49;;;;;;;0.57;0.30;;;;;;;17.25;56.88;95386.50;4957532;28;20212;-76
2021/06/30 08:21:16;;;;;;;0.28;0.28;;;;;;;17.48;56.27;95385.41;4956982;28;20226;-76
2021/06/30 08:23:42;;;;;;;0.93;0.73;;;;;;;17.31;57.21;95391.97;4962901;28;20185;-77
2021/06/30 08:26:08;;;;;;;1.27;0.40;;;;;;;16.94;56.56;95391.34;4948432;28;20219;-77
2021/06/30 08:28:35;;;;;;;1.67;0.20;;;;;;;16.40;58.10;95391.84;4973919;28;20184;-77
2021/06/30 08:31:00;;;;;;;0.40;0.40;;;;;;;15.69;60.10;95391.69;4973988;28;20180;-75
2021/06/30 08:33:32;;;;;;;0.30;0.30;;;;;;;16.14;60.34;95393.22;5067836;28;20570;-76
2021/06/30 08:35:58;;;;;;;0.30;0.30;;;;;;;16.27;59.32;95389.13;5067761;28;20209;-75
2021/06/30 08:38:23;;;;;;;0.25;0.25;;;;;;;16.41;59.95;95385.59;5067517;28;20177;-76
2021/06/30 08:40:53;;;;;;;0.30;0.30;;;;;;;16.53;59.14;95397.25;5067893;28;20180;-76
2021/06/30 08:43:18;;;;;;;1.08;0.40;;;;;;;16.53;60.15;95388.56;5065380;28;20172;-75
2021/06/30 08:45:44;;;;;;;1.92;0.40;;;;;;;16.64;60.91;95394.09;5050437;28;20185;-76
2021/06/30 08:48:09;;;;;;;0.43;0.40;;;;;;;16.62;61.41;95388.25;5050962;28;20671;-76
2021/06/30 08:50:38;;;;;;;0.40;0.30;;;;;;;16.88;60.05;95389.50;5051153;28;20185;-75
2021/06/30 08:53:03;;;;;;;0.40;0.30;;;;;;;16.67;59.19;95393.72;5046915;28;20573;-76
2021/06/30 08:55:29;;;;;;;1.33;0.30;;;;;;;16.39;60.95;95396.28;5039416;28;20193;-74
2021/06/30 08:57:54;;;;;;;0.20;0.20;;;;;;;16.91;61.33;95404.84;5064033;28;20205;-79
2021/06/30 09:00:20;;;;;;;0.32;0.30;;;;;;;16.81;59.48;95399.91;5064486;28;20181;-77
2021/06/30 09:02:47;;;;;;;1.27;0.20;;;;;;;17.10;59.56;95400.72;5067517;28;20177;-78
2021/06/30 09:07:48;;;;;;;0.30;0.30;;;;;;;17.55;58.86;95394.94;5068811;28;20197;-77
2021/06/30 09:10:33;;;;;;;0.40;0.30;;;;;;;17.50;58.66;95394.75;5050669;28;20176;-77
2021/06/30 09:13:00;;;;;;;0.25;0.25;;;;;;;17.88;58.36;95399.59;5067620;28;20296;-78
2021/06/30 09:15:36;;;;;;;0.52;0.30;;;;;;;18.35;55.99;95411.03;5065048;28;20196;-78
2021/06/30 09:18:18;;;;;;;0.55;0.40;;;;;;;18.40;55.95;95408.63;5066906;28;20242;-77
2021/06/30 09:20:43;;;;;;;0.40;0.40;;;;;;;18.22;58.40;95403.13;5067321;28;20173;-78
2021/06/30 09:23:08;;;;;;;0.38;0.32;;;;;;;18.36;57.38;95405.56;5067587;28;20234;-78
2021/06/30 09:25:36;;;;;;;0.30;0.30;;;;;;;18.04;57.51;95407.13;5067835;28;20185;-78
2021/06/30 09:28:16;;;;;;;1.90;0.30;;;;;;;18.18;56.51;95402.69;5061251;28;20173;-78
2021/06/30 09:31:04;;;;;;;0.77;0.30;;;;;;;18.44;56.96;95399.31;5068300;28;20264;-77
2021/06/30 09:33:53;;;;;;;0.40;0.40;;;;;;;18.59;54.92;95401.78;5066361;28;20193;-76
2021/06/30 09:36:19;;;;;;;2.22;1.15;;;;;;;18.77;56.29;95396.78;5051320;28;20288;-77
2021/06/30 09:38:45;;;;;;;1.17;0.20;;;;;;;17.67;56.40;95392.59;5064577;28;20192;-77
2021/06/30 09:41:27;;;;;;;0.52;0.50;;;;;;;18.47;56.16;95396.31;5068047;28;20174;-78
2021/06/30 09:44:05;;;;;;;0.30;0.30;;;;;;;17.97;58.65;95405.47;5060358;28;20206;-77
2021/06/30 09:46:30;;;;;;;0.63;0.40;;;;;;;18.07;57.05;95396.22;5053404;28;20619;-76
2021/06/30 09:48:57;;;;;;;0.30;0.30;;;;;;;18.14;57.25;95398.88;5048166;28;20187;-78
2021/06/30 09:51:23;;;;;;;0.40;0.40;;;;;;;18.06;58.02;95399.03;5036291;28;20235;-77
2021/06/30 09:53:48;;;;;;;0.52;0.45;;;;;;;17.82;59.85;95406.41;5051951;28;20539;-76
2021/06/30 09:56:35;;;;;;;0.50;0.50;;;;;;;17.07;61.01;95412.44;5036160;28;20202;-77
2021/06/30 09:59:03;;;;;;;0.75;0.50;;;;;;;16.68;60.63;95408.47;5049905;28;20668;-76
2021/06/30 10:01:29;;;;;;;0.30;0.30;;;;;;;16.45;61.30;95412.28;5035756;28;20557;-76
2021/06/30 10:03:54;;;;;;;0.40;0.40;;;;;;;16.51;62.95;95414.13;5052264;28;20178;-78
2021/06/30 10:06:24;;;;;;;1.38;0.60;;;;;;;16.30;63.65;95412.31;5035756;28;20437;-77
2021/06/30 10:08:49;;;;;;;0.60;0.40;;;;;;;15.68;65.44;95400.53;5033381;28;20179;-77
2021/06/30 10:11:14;;;;;;;0.57;0.55;;;;;;;15.68;66.58;95400.53;5052359;28;20542;-77
2021/06/30 10:13:40;;;;;;;1.10;0.47;;;;;;;16.00;65.67;95398.50;5053420;28;20178;-77
2021/06/30 10:16:05;;;;;;;0.77;0.50;;;;;;;16.13;66.19;95403.88;5054046;28;20193;-77
2021/06/30 10:18:33;;;;;;;1.00;0.50;;;;;;;15.93;66.28;95408.91;5037133;28;20185;-79
2021/06/30 10:20:58;;;;;;;0.68;0.50;;;;;;;16.23;65.99;95399.16;5050283;28;20249;-78
2021/06/30 10:23:24;;;;;;;0.50;0.50;;;;;;;16.06;66.07;95402.97;5055193;28;20201;-79
2021/06/30 10:25:49;;;;;;;0.43;0.43;;;;;;;15.98;65.71;95403.09;5057459;28;20653;-79
2021/06/30 10:28:15;;;;;;;1.27;0.60;;;;;;;15.97;67.72;95399.66;5062516;28;20188;-78
2021/06/30 10:30:40;;;;;;;0.60;0.50;;;;;;;15.50;66.84;95405.31;5060478;28;20803;-79
2021/06/30 10:33:05;;;;;;;0.82;0.50;;;;;;;15.54;68.93;95406.56;5055043;28;20198;-78
2021/06/30 10:35:32;;;;;;;0.90;0.70;;;;;;;15.69;69.20;95401.34;5038142;28;20204;-79
2021/06/30 10:37:57;;;;;;;0.50;0.50;;;;;;;15.15;69.12;95409.44;5038447;28;20210;-77
2021/06/30 10:40:24;;;;;;;0.50;0.50;;;;;;;15.04;71.91;95400.25;5017965;28;20183;-76
2021/06/30 10:43:06;;;;;;;1.70;0.45;;;;;;;14.61;71.16;95393.94;5057506;28;20182;-80
2021/06/30 10:45:31;;;;;;;0.43;0.43;;;;;;;14.70;72.43;95392.88;5056029;28;20173;-79
2021/06/30 10:48:05;;;;;;;0.55;0.40;;;;;;;14.76;72.84;95393.97;5052724;28;20693;-78
2021/06/30 10:50:43;;;;;;;0.50;0.50;;;;;;;14.63;71.71;95390.13;5037895;28;20189;-77
2021/06/30 10:53:12;;;;;;;0.73;0.40;;;;;;;14.40;71.32;95395.38;5048367;28;20206;-76
2021/06/30 10:55:48;;;;;;;0.60;0.60;;;;;;;14.49;73.52;95392.69;5054040;28;20177;-78
2021/06/30 10:58:13;;;;;;;0.50;0.50;;;;;;;14.91;72.47;95386.94;5057100;28;20255;-77
2021/06/30 11:00:57;;;;;;;0.50;0.50;;;;;;;14.60;72.13;95392.31;5058003;28;20173;-79
2021/06/30 11:03:43;;;;;;;2.97;0.50;;;;;;;14.70;71.41;95393.69;5053000;28;20182;-79
2021/06/30 11:06:16;;;;;;;0.40;0.40;;;;;;;14.70;71.79;95396.28;5059122;28;20193;-78
2021/06/30 11:09:00;;;;;;;0.50;0.50;;;;;;;14.72;72.29;95390.88;5059890;28;20592;-78
2021/06/30 11:11:34;;;;;;;1.33;0.53;;;;;;;14.62;72.39;95388.53;5056585;28;20184;-78
2021/06/30 11:14:10;;;;;;;0.67;0.60;;;;;;;14.38;71.99;95391.28;5053342;28;20668;-79
2021/06/30 11:16:48;;;;;;;0.93;0.87;;;;;;;14.31;72.42;95391.19;5036191;28;20688;-76
2021/06/30 11:19:17;;;;;;;0.50;0.50;;;;;;;14.41;73.94;95383.13;5052285;28;20212;-77
2021/06/30 11:21:44;;;;;;;0.60;0.60;;;;;;;14.73;73.69;95380.25;5054132;28;20560;-77
2021/06/30 11:24:35;;;;;;;2.13;0.77;;;;;;;14.75;73.28;95385.28;5045309;28;20174;-76
2021/06/30 11:27:14;;;;;;;0.60;0.50;;;;;;;14.94;73.29;95376.16;5051523;28;20258;-77
2021/06/30 11:29:58;;;;;;;0.57;0.50;;;;;;;14.88;72.86;95375.06;5052045;28;20188;-77
2021/06/30 11:34:59;;;;;;;1.48;0.40;;;;;;;14.93;72.22;95377.97;5045989;28;20262;-75
2021/06/30 11:37:26;;;;;;;0.47;0.47;;;;;;;15.04;72.48;95370.66;5053668;28;20217;-76